KHSE

Details ICAO KHSE
Name Billy Mitchell
Region United States
Timezone America/New_York (UTC-4.0)
Plans Departing 11
Arriving 31
Stats Elevation 17 ft / 5 m (AMSL)
Location 35.232793° -75.617790°
Runways 1
Magnetic Variation 10.926° W
Sunrise 2018-05-22 09:55:07 UTC / 2018-05-22 05:55:07 Local
Sunset 2018-05-23 00:06:03 UTC / 2018-05-22 20:06:03 Local
Advertisement - Login to hide

Runways

ID Width Length Bearing (true) Bearing (mag) Surface Threshold Offset Overrun Length
07 75 ft / 23 m 2,996 ft / 913 m 56.60° 67.53° Asphalt 0 ft / 0 m 0 ft / 0 m
25 75 ft / 23 m 2,996 ft / 913 m 236.60° 247.53° Asphalt 0 ft / 0 m 0 ft / 0 m

Map

Weather


0- 5 10 15 20 25 30 35+ Temperature / ° C

Clouds and Precipitation
Forecast for 2018-05-23 00:00 UTC. Updated 20 minutes ago

Ground ~20,000 ft ~40,000 ft Winds

METAR

KHSE 222251Z AUTO 23010G16KT 10SM CLR 24/22 A3009 RMK AO2 SLP188 T02440222

TAF

Not found

Frequencies

Recorded 118.37 MHz ASOS
Approach 119.75 MHz CHERRY POINT APP/DEP
Unicom 122.90 MHz CTAF
Warning: Do not use this data for real-world aviation or navigation. No guarantee of current accuracy is given.